Time;durP1;ratioP1;P1;durP2;ratioP2;P2;SDS_P1;SDS_P2;PMS_P1;PMS_P2;Temp;Humidity;BMP_temperature;BMP_pressure;BME280_temperature;BME280_humidity;BME280_pressure;Samples;Min_cycle;Max_cycle;Signal;HPM_P1;HPM_P2
2022/03/10 00:00:39;;;;;;;25.43;8.80;;;2.20;1.00;;;;;;5054816;28;20184;-87
2022/03/10 00:03:06;;;;;;;18.73;8.53;;;2.20;1.00;;;;;;5054914;28;20200;-87
2022/03/10 00:05:34;;;;;;;22.00;9.17;;;2.20;1.00;;;;;;5055144;28;20265;-86
2022/03/10 00:08:01;;;;;;;20.53;9.43;;;2.10;1.00;;;;;;5055072;28;20193;-86
2022/03/10 00:10:28;;;;;;;19.67;9.53;;;2.20;1.00;;;;;;5054812;28;20225;-87
2022/03/10 00:12:55;;;;;;;16.20;8.10;;;2.10;1.00;;;;;;5054851;28;20219;-86
2022/03/10 00:15:24;;;;;;;21.63;10.03;;;2.10;1.00;;;;;;5055040;28;20641;-86
2022/03/10 00:17:53;;;;;;;19.13;9.83;;;2.10;1.00;;;;;;5055153;28;20287;-88
2022/03/10 00:20:21;;;;;;;25.13;11.20;;;2.10;1.00;;;;;;5054910;28;20195;-87
2022/03/10 00:22:50;;;;;;;17.20;8.60;;;2.00;1.00;;;;;;5054666;28;20272;-87
2022/03/10 00:25:17;;;;;;;26.23;11.33;;;2.00;1.00;;;;;;5054776;28;20189;-87
2022/03/10 00:27:44;;;;;;;22.37;10.43;;;2.00;1.00;;;;;;5054391;28;20653;-87
2022/03/10 00:30:12;;;;;;;20.20;9.10;;;2.00;1.00;;;;;;5054687;28;20242;-87
2022/03/10 00:32:47;;;;;;;21.03;9.37;;;2.00;26.80;;;;;;5054279;28;20572;-87
2022/03/10 00:35:20;;;;;;;19.67;10.23;;;2.00;99.90;;;;;;5054284;28;20230;-86
2022/03/10 00:37:47;;;;;;;24.57;11.77;;;1.90;63.90;;;;;;5054152;28;20629;-86
2022/03/10 00:40:14;;;;;;;22.43;11.00;;;1.90;39.60;;;;;;5054460;28;20541;-87
2022/03/10 00:42:43;;;;;;;24.80;11.37;;;1.90;21.80;;;;;;5054554;28;20284;-87
2022/03/10 00:45:17;;;;;;;17.83;7.60;;;1.80;60.90;;;;;;5054259;28;20204;-87
2022/03/10 00:47:45;;;;;;;26.13;11.10;;;1.80;99.90;;;;;;5054024;28;20655;-87
2022/03/10 00:50:12;;;;;;;19.97;9.80;;;1.80;99.90;;;;;;5054397;28;20199;-87
2022/03/10 00:52:42;;;;;;;22.10;10.07;;;1.70;72.50;;;;;;5053897;28;20220;-87
2022/03/10 00:55:10;;;;;;;21.93;10.80;;;1.70;99.90;;;;;;5053861;28;20189;-87
2022/03/10 00:57:38;;;;;;;19.43;9.33;;;1.80;99.90;;;;;;5053895;28;20250;-86
2022/03/10 01:00:07;;;;;;;21.10;10.30;;;1.70;99.90;;;;;;5053943;28;20184;-86
2022/03/10 01:02:34;;;;;;;23.17;11.13;;;1.70;99.90;;;;;;5053709;28;20291;-87
2022/03/10 01:05:01;;;;;;;18.83;9.87;;;1.70;99.90;;;;;;5053806;28;20194;-87
2022/03/10 01:07:28;;;;;;;20.07;8.57;;;1.70;99.90;;;;;;5053965;28;20196;-87
2022/03/10 01:09:57;;;;;;;20.33;9.93;;;1.70;99.90;;;;;;5053882;28;20242;-86
2022/03/10 01:12:24;;;;;;;17.77;9.47;;;1.70;99.90;;;;;;5053139;28;20223;-87
2022/03/10 01:14:52;;;;;;;15.00;7.83;;;1.70;99.90;;;;;;5053991;28;20204;-87
2022/03/10 01:17:19;;;;;;;23.33;10.17;;;1.70;99.90;;;;;;5053779;28;20192;-87
2022/03/10 01:19:47;;;;;;;21.57;10.10;;;1.60;99.90;;;;;;5053420;28;20295;-87
2022/03/10 01:22:14;;;;;;;21.43;10.67;;;1.60;99.90;;;;;;5053447;28;20609;-88
2022/03/10 01:24:41;;;;;;;22.57;10.50;;;1.60;99.90;;;;;;5053349;28;20193;-87
2022/03/10 01:27:10;;;;;;;20.43;10.10;;;1.60;99.90;;;;;;5053306;28;20253;-87
2022/03/10 01:29:37;;;;;;;22.30;11.87;;;1.50;99.90;;;;;;5053129;28;20205;-87
2022/03/10 01:32:05;;;;;;;19.73;9.10;;;1.50;99.90;;;;;;5053442;28;20204;-87
2022/03/10 01:34:32;;;;;;;20.77;10.60;;;1.40;99.90;;;;;;5053415;28;20223;-87
2022/03/10 01:36:59;;;;;;;21.70;10.33;;;1.40;99.90;;;;;;5053253;28;20266;-87
2022/03/10 01:39:26;;;;;;;22.17;12.07;;;1.30;99.90;;;;;;5053331;28;20258;-87
2022/03/10 01:41:53;;;;;;;21.53;10.20;;;1.30;99.90;;;;;;5053505;28;20201;-87
2022/03/10 01:44:22;;;;;;;20.73;11.57;;;1.20;99.90;;;;;;5052936;28;20200;-87
2022/03/10 01:46:49;;;;;;;22.63;9.73;;;1.20;99.90;;;;;;5052861;28;20546;-87
2022/03/10 01:49:17;;;;;;;28.00;11.07;;;1.10;1.00;;;;;;5053235;28;20242;-87
2022/03/10 01:51:44;;;;;;;21.47;10.63;;;1.00;99.90;;;;;;5053160;28;20239;-87
2022/03/10 01:54:12;;;;;;;20.33;9.87;;;1.00;99.90;;;;;;5053024;28;20228;-87
2022/03/10 01:56:40;;;;;;;23.10;10.23;;;1.00;99.90;;;;;;5053147;28;20196;-87
2022/03/10 01:59:07;;;;;;;21.90;10.57;;;1.00;99.90;;;;;;5053058;28;20196;-87
2022/03/10 02:01:36;;;;;;;20.90;9.83;;;1.00;99.90;;;;;;5052636;28;20189;-87
2022/03/10 02:04:03;;;;;;;25.27;11.30;;;1.00;99.90;;;;;;5052606;28;20208;-87
2022/03/10 02:06:31;;;;;;;23.83;10.57;;;0.90;99.90;;;;;;5053128;28;20208;-86
2022/03/10 02:11:43;;;;;;;19.13;9.83;;;0.90;99.90;;;;;;5052610;28;20551;-87
2022/03/10 02:19:40;;;;;;;20.93;10.43;;;0.80;1.00;;;;;;5052622;28;20227;-87
2022/03/10 02:22:10;;;;;;;24.77;11.17;;;0.80;1.00;;;;;;5052099;28;20232;-87
2022/03/10 02:24:38;;;;;;;23.07;11.47;;;0.80;1.00;;;;;;5051608;28;20216;-87
2022/03/10 02:27:24;;;;;;;17.40;9.87;;;0.80;1.00;;;;;;5052612;28;20592;-88
2022/03/10 02:29:53;;;;;;;26.27;11.03;;;0.80;1.00;;;;;;5052331;28;20173;-87
2022/03/10 02:32:21;;;;;;;18.43;9.70;;;0.80;1.00;;;;;;5052454;28;20201;-88
2022/03/10 02:34:50;;;;;;;19.53;10.43;;;0.80;1.00;;;;;;5052466;28;20647;-88
2022/03/10 02:37:18;;;;;;;18.97;9.30;;;0.80;1.00;;;;;;5052749;28;20204;-88
2022/03/10 02:39:46;;;;;;;21.90;10.57;;;0.80;1.00;;;;;;5052235;28;20227;-88
2022/03/10 02:42:14;;;;;;;20.47;10.30;;;0.70;1.00;;;;;;5052426;28;20201;-88
2022/03/10 02:44:42;;;;;;;20.90;10.60;;;0.70;1.00;;;;;;5052676;28;20199;-88
2022/03/10 02:47:09;;;;;;;19.30;10.17;;;0.70;1.00;;;;;;5052355;28;20283;-87
2022/03/10 02:49:38;;;;;;;19.80;9.47;;;0.70;1.00;;;;;;5052021;28;20192;-87
2022/03/10 02:52:05;;;;;;;17.30;8.97;;;0.70;1.00;;;;;;5051942;28;20189;-88
2022/03/10 02:54:34;;;;;;;16.33;8.67;;;0.70;1.00;;;;;;5052244;28;20224;-87
2022/03/10 02:57:01;;;;;;;20.90;10.03;;;0.70;1.00;;;;;;5052381;28;20198;-87
2022/03/10 02:59:28;;;;;;;17.50;9.03;;;0.60;1.00;;;;;;5052528;28;20672;-88
2022/03/10 03:01:58;;;;;;;17.63;9.17;;;0.60;99.90;;;;;;5052465;28;20197;-87
2022/03/10 03:04:25;;;;;;;23.03;10.53;;;0.60;99.90;;;;;;5051836;28;20196;-88
2022/03/10 03:06:52;;;;;;;19.67;10.40;;;0.50;99.90;;;;;;5052395;28;20193;-88
2022/03/10 03:09:19;;;;;;;20.20;10.13;;;0.50;99.90;;;;;;5051873;28;20218;-88
2022/03/10 03:11:47;;;;;;;20.33;8.80;;;0.60;99.90;;;;;;5052337;28;20200;-88
2022/03/10 03:14:14;;;;;;;18.70;8.90;;;0.60;99.90;;;;;;5052072;28;20273;-87
2022/03/10 03:16:41;;;;;;;20.20;7.17;;;0.60;99.90;;;;;;5052127;28;20196;-87
2022/03/10 03:19:08;;;;;;;17.10;8.90;;;0.60;99.90;;;;;;5051808;28;20192;-88
2022/03/10 03:21:35;;;;;;;19.83;10.07;;;0.60;99.90;;;;;;5051740;28;20262;-87
2022/03/10 03:24:03;;;;;;;23.27;11.47;;;0.50;99.90;;;;;;5052173;28;20192;-88
2022/03/10 03:26:30;;;;;;;23.17;11.07;;;0.60;99.90;;;;;;5052299;28;20220;-88
2022/03/10 03:28:58;;;;;;;21.53;11.07;;;0.60;99.90;;;;;;5051887;28;20193;-87
2022/03/10 03:31:25;;;;;;;16.17;8.73;;;0.60;99.90;;;;;;5051608;28;20193;-87
2022/03/10 03:33:52;;;;;;;19.83;10.13;;;0.60;99.90;;;;;;5052149;28;20227;-87
2022/03/10 03:36:22;;;;;;;19.60;10.47;;;0.60;99.90;;;;;;5055356;28;20193;-87
2022/03/10 03:38:49;;;;;;;23.73;11.00;;;0.60;99.90;;;;;;5055348;28;20189;-87
2022/03/10 03:41:16;;;;;;;21.83;10.57;;;0.60;99.90;;;;;;5055605;28;20197;-87
2022/03/10 03:43:43;;;;;;;20.83;9.93;;;0.60;1.00;;;;;;5055320;28;20258;-87
2022/03/10 03:46:12;;;;;;;21.93;12.30;;;0.60;99.90;;;;;;5055570;28;20196;-87
2022/03/10 03:48:39;;;;;;;25.37;12.07;;;0.60;99.90;;;;;;5055442;28;20263;-87
2022/03/10 03:51:06;;;;;;;21.90;11.70;;;0.60;99.90;;;;;;5055583;28;20283;-88
2022/03/10 03:53:33;;;;;;;24.23;10.97;;;0.60;99.90;;;;;;5055088;28;20546;-88
2022/03/10 03:56:00;;;;;;;23.30;10.63;;;0.60;99.90;;;;;;5055605;28;20619;-88
2022/03/10 03:58:27;;;;;;;20.60;10.43;;;0.60;99.90;;;;;;5055500;28;20192;-88
2022/03/10 04:00:54;;;;;;;19.03;10.00;;;0.60;1.00;;;;;;5055195;28;20196;-88
2022/03/10 04:03:23;;;;;;;21.70;10.10;;;0.60;1.00;;;;;;5055250;28;20258;-88
2022/03/10 04:05:50;;;;;;;22.20;11.37;;;0.60;1.00;;;;;;5055273;28;20192;-88
2022/03/10 04:08:21;;;;;;;24.83;11.13;;;0.60;1.00;;;;;;5055010;28;20645;-88
2022/03/10 04:11:06;;;;;;;21.57;10.60;;;0.50;1.00;;;;;;5054895;28;20676;-88
2022/03/10 04:13:33;;;;;;;24.07;11.50;;;0.50;1.00;;;;;;5055224;28;20250;-88
2022/03/10 04:16:00;;;;;;;20.60;10.73;;;0.50;1.00;;;;;;5055365;28;20200;-88
2022/03/10 04:18:29;;;;;;;21.83;10.67;;;0.50;1.00;;;;;;5055027;28;20650;-88
2022/03/10 04:20:59;;;;;;;23.63;11.97;;;0.60;1.00;;;;;;5054592;28;20307;-88
2022/03/10 04:23:26;;;;;;;23.70;11.47;;;0.60;99.90;;;;;;5054927;28;20205;-88
2022/03/10 04:25:53;;;;;;;24.43;11.93;;;0.60;1.00;;;;;;5054863;28;20254;-88
2022/03/10 04:28:20;;;;;;;21.90;10.97;;;0.60;1.00;;;;;;5054577;28;20193;-88
2022/03/10 04:30:47;;;;;;;27.33;13.10;;;0.60;1.00;;;;;;5054059;28;20599;-88
2022/03/10 04:33:14;;;;;;;23.53;12.90;;;0.60;1.00;;;;;;5054420;28;20184;-88
2022/03/10 04:35:43;;;;;;;23.33;11.20;;;0.60;1.00;;;;;;5054742;28;20592;-88
2022/03/10 04:38:10;;;;;;;27.57;13.37;;;0.50;1.00;;;;;;5054276;28;20196;-88
2022/03/10 04:40:38;;;;;;;25.93;13.03;;;0.50;1.00;;;;;;5054346;28;20703;-88
2022/03/10 04:43:05;;;;;;;29.73;12.10;;;0.50;1.00;;;;;;5054520;28;20224;-88
2022/03/10 04:45:32;;;;;;;24.13;13.40;;;0.50;1.00;;;;;;5053881;28;20188;-88
2022/03/10 04:47:59;;;;;;;22.43;11.37;;;0.50;1.00;;;;;;5054381;28;20198;-88
2022/03/10 04:50:26;;;;;;;26.27;13.63;;;0.50;1.00;;;;;;5054059;28;20201;-88
2022/03/10 04:52:55;;;;;;;26.53;12.47;;;0.40;1.00;;;;;;5054560;28;20208;-88
2022/03/10 04:55:22;;;;;;;21.13;10.80;;;0.40;1.00;;;;;;5053817;28;20692;-88
2022/03/10 04:57:49;;;;;;;20.57;11.33;;;0.40;1.00;;;;;;5054296;28;20719;-88
2022/03/10 05:00:18;;;;;;;16.93;8.93;;;0.40;1.00;;;;;;5053691;28;20193;-88
2022/03/10 05:02:47;;;;;;;25.00;12.47;;;0.30;99.90;;;;;;5054582;28;20196;-89
2022/03/10 05:05:14;;;;;;;23.73;11.57;;;0.30;1.00;;;;;;5053741;28;20193;-88
2022/03/10 05:07:41;;;;;;;21.77;9.97;;;0.30;99.90;;;;;;5053800;28;20566;-88
2022/03/10 05:10:11;;;;;;;25.50;13.13;;;0.30;1.00;;;;;;5054130;28;20196;-88
2022/03/10 05:12:46;;;;;;;20.23;10.20;;;0.30;99.90;;;;;;5054001;28;20200;-87
2022/03/10 05:15:13;;;;;;;18.47;10.20;;;0.30;1.00;;;;;;5053926;28;20285;-89
2022/03/10 05:17:40;;;;;;;25.97;13.40;;;0.30;1.00;;;;;;5053568;28;20227;-88
2022/03/10 05:20:09;;;;;;;28.73;13.97;;;0.30;99.90;;;;;;5053949;28;20192;-88
2022/03/10 05:22:45;;;;;;;26.03;14.33;;;0.40;99.90;;;;;;5054176;28;20540;-89
2022/03/10 05:25:15;;;;;;;29.33;15.30;;;0.40;99.90;;;;;;5056392;28;20230;-87
2022/03/10 05:27:45;;;;;;;26.93;14.70;;;0.40;1.00;;;;;;5053365;28;20189;-88
2022/03/10 05:30:14;;;;;;;36.10;15.73;;;0.40;94.80;;;;;;5052813;28;20247;-88
2022/03/10 05:32:41;;;;;;;29.77;14.67;;;0.40;1.00;;;;;;5058933;28;20201;-88
2022/03/10 05:35:10;;;;;;;30.67;16.33;;;0.50;99.90;;;;;;5060925;28;20274;-88
2022/03/10 05:37:40;;;;;;;26.07;13.53;;;0.50;9.60;;;;;;5058878;28;20197;-91
2022/03/10 05:40:09;;;;;;;34.37;16.07;;;0.50;99.90;;;;;;5063737;28;20645;-87
2022/03/10 05:42:41;;;;;;;34.20;15.97;;;0.50;99.90;;;;;;5063217;28;20197;-90
2022/03/10 05:45:11;;;;;;;31.37;14.47;;;0.50;99.90;;;;;;5064189;28;20250;-89
2022/03/10 05:47:57;;;;;;;33.30;17.97;;;0.50;99.90;;;;;;5065782;28;20199;-92
2022/03/10 05:50:30;;;;;;;35.67;18.77;;;0.60;99.90;;;;;;5065878;28;20196;-87
2022/03/10 05:53:08;;;;;;;35.97;17.63;;;0.70;99.90;;;;;;5061204;28;20165;-89
2022/03/10 05:55:36;;;;;;;34.03;18.27;;;0.70;99.90;;;;;;5057016;28;20215;-87
2022/03/10 05:58:05;;;;;;;33.83;17.13;;;0.80;1.00;;;;;;5059397;28;20222;-88
2022/03/10 06:00:32;;;;;;;34.87;16.97;;;0.90;1.00;;;;;;5056899;28;20196;-88
2022/03/10 06:02:59;;;;;;;35.30;18.17;;;1.00;1.00;;;;;;5059298;28;20226;-89
2022/03/10 06:05:26;;;;;;;38.53;18.77;;;1.10;1.00;;;;;;5057927;28;20197;-88
2022/03/10 06:07:53;;;;;;;33.87;18.07;;;1.20;1.00;;;;;;5059002;28;20222;-87
2022/03/10 06:10:22;;;;;;;41.13;19.20;;;1.30;1.00;;;;;;5056957;28;20181;-87
2022/03/10 06:12:49;;;;;;;34.63;16.87;;;1.40;1.00;;;;;;5057487;28;20200;-89
2022/03/10 06:15:18;;;;;;;38.17;18.83;;;1.50;1.00;;;;;;5052241;28;20208;-89
2022/03/10 06:17:45;;;;;;;43.43;20.10;;;1.60;1.00;;;;;;5041984;28;20645;-87
2022/03/10 06:20:12;;;;;;;35.50;20.17;;;1.70;1.00;;;;;;5049804;28;20181;-90
2022/03/10 06:22:40;;;;;;;42.70;19.17;;;1.80;1.00;;;;;;5045961;28;20219;-88
2022/03/10 06:25:08;;;;;;;37.43;18.80;;;1.90;1.00;;;;;;5056951;28;20200;-89
2022/03/10 06:27:35;;;;;;;34.63;16.53;;;2.00;1.00;;;;;;5054740;28;20187;-88
2022/03/10 06:30:12;;;;;;;35.00;18.37;;;2.10;1.00;;;;;;5053777;28;20594;-90
2022/03/10 06:32:41;;;;;;;38.50;20.33;;;2.20;1.00;;;;;;5038525;28;20192;-89
2022/03/10 06:35:09;;;;;;;32.90;18.53;;;2.20;1.00;;;;;;5057678;28;20205;-88
2022/03/10 06:37:36;;;;;;;35.93;18.00;;;2.30;99.90;;;;;;5051802;28;20186;-88
2022/03/10 06:40:03;;;;;;;34.43;18.10;;;2.30;99.90;;;;;;5053070;28;20551;-87
2022/03/10 06:42:31;;;;;;;35.73;19.67;;;2.40;99.90;;;;;;5049023;28;20192;-89
2022/03/10 06:44:59;;;;;;;33.97;17.97;;;2.40;99.90;;;;;;5058272;28;20248;-89
2022/03/10 06:47:27;;;;;;;37.60;18.27;;;2.50;99.90;;;;;;5055855;28;20258;-89
2022/03/10 06:49:55;;;;;;;32.40;17.60;;;2.50;58.80;;;;;;5056730;28;20196;-91
2022/03/10 06:52:22;;;;;;;33.17;17.73;;;2.50;1.00;;;;;;5059063;28;20254;-87
2022/03/10 06:54:49;;;;;;;33.57;17.23;;;2.60;1.00;;;;;;5058551;28;20723;-89
2022/03/10 06:57:16;;;;;;;33.17;17.73;;;2.60;1.00;;;;;;5042360;28;20220;-89
2022/03/10 06:59:43;;;;;;;32.43;17.67;;;2.60;1.00;;;;;;5040056;28;20599;-89
2022/03/10 07:02:15;;;;;;;31.43;18.27;;;2.70;1.00;;;;;;5056418;28;20265;-90
2022/03/10 07:04:59;;;;;;;34.17;17.10;;;2.70;1.00;;;;;;5048127;28;20212;-91
2022/03/10 07:07:26;;;;;;;32.50;18.60;;;2.70;1.00;;;;;;5047940;28;20186;-89
2022/03/10 07:09:53;;;;;;;31.77;17.47;;;2.70;99.90;;;;;;5057390;28;20184;-88
2022/03/10 07:12:24;;;;;;;34.17;16.53;;;2.70;99.90;;;;;;5062522;28;20193;-88
2022/03/10 07:15:00;;;;;;;31.50;16.93;;;2.70;99.90;;;;;;5058323;28;20268;-89
2022/03/10 07:17:27;;;;;;;33.67;17.47;;;2.70;99.90;;;;;;5045360;28;20354;-86
2022/03/10 07:19:59;;;;;;;32.77;17.07;;;2.70;99.90;;;;;;5036907;28;20197;-91
2022/03/10 07:22:26;;;;;;;26.80;14.70;;;2.70;99.90;;;;;;5038236;28;20229;-87
2022/03/10 07:24:53;;;;;;;30.10;16.43;;;2.70;39.70;;;;;;5053626;28;20246;-89
2022/03/10 07:27:28;;;;;;;31.93;17.50;;;2.80;1.00;;;;;;5057959;28;20200;-89
2022/03/10 07:29:55;;;;;;;26.57;14.60;;;2.80;1.00;;;;;;5059157;28;20168;-89
2022/03/10 07:32:25;;;;;;;27.30;15.33;;;2.80;1.00;;;;;;5058451;28;20680;-90
2022/03/10 07:34:52;;;;;;;28.20;16.40;;;2.80;1.00;;;;;;5055933;28;20692;-89
2022/03/10 07:37:20;;;;;;;31.23;16.70;;;2.80;1.00;;;;;;5049258;28;20586;-90
2022/03/10 07:39:47;;;;;;;29.77;17.03;;;2.80;1.00;;;;;;5054404;28;20193;-89
2022/03/10 07:42:15;;;;;;;33.07;16.33;;;2.80;1.00;;;;;;5057607;28;20197;-85
2022/03/10 07:44:42;;;;;;;29.77;16.77;;;2.90;1.00;;;;;;5058561;28;20202;-87
2022/03/10 07:47:09;;;;;;;32.30;16.70;;;2.90;1.00;;;;;;5057580;28;20189;-85
2022/03/10 07:49:37;;;;;;;31.80;16.87;;;3.00;1.00;;;;;;5060966;28;20227;-85
2022/03/10 07:52:06;;;;;;;24.93;15.50;;;3.10;1.00;;;;;;5055571;28;20435;-89
2022/03/10 07:54:35;;;;;;;27.43;15.63;;;3.10;1.00;;;;;;5044149;28;20403;-86
2022/03/10 07:57:02;;;;;;;26.00;15.03;;;3.30;1.00;;;;;;5056722;28;20197;-84
2022/03/10 07:59:30;;;;;;;27.90;14.73;;;3.40;1.00;;;;;;5050769;28;20898;-85
2022/03/10 08:01:57;;;;;;;26.53;14.63;;;3.50;1.00;;;;;;5061532;28;20201;-84
2022/03/10 08:04:26;;;;;;;25.97;14.43;;;3.70;1.00;;;;;;5058769;28;20189;-89
2022/03/10 08:06:53;;;;;;;24.57;13.77;;;3.70;99.90;;;;;;5046203;28;20185;-85
2022/03/10 08:09:20;;;;;;;21.57;12.63;;;3.90;99.90;;;;;;5055483;28;20718;-87
2022/03/10 08:11:55;;;;;;;24.10;13.13;;;4.10;99.90;;;;;;5053751;28;20649;-86
2022/03/10 08:14:29;;;;;;;22.50;12.10;;;4.30;99.90;;;;;;5042672;28;20184;-85
2022/03/10 08:16:55;;;;;;;21.37;12.37;;;4.40;99.90;;;;;;5053999;28;20180;-86
2022/03/10 08:19:22;;;;;;;17.37;10.00;;;4.60;99.90;;;;;;5055881;28;20196;-85
2022/03/10 08:21:51;;;;;;;19.40;11.20;;;4.70;1.00;;;;;;5052718;28;20281;-84
2022/03/10 08:24:18;;;;;;;17.67;11.00;;;4.80;1.00;;;;;;5055479;28;20235;-85
2022/03/10 08:26:45;;;;;;;16.63;10.13;;;4.90;1.00;;;;;;5055146;28;20602;-84
2022/03/10 08:29:13;;;;;;;20.23;10.40;;;4.90;1.00;;;;;;5055264;28;20193;-85
2022/03/10 08:31:41;;;;;;;17.10;8.93;;;4.90;1.00;;;;;;5046407;28;20195;-86
2022/03/10 08:34:08;;;;;;;14.43;9.00;;;4.90;1.00;;;;;;5054757;28;20203;-84
2022/03/10 08:36:35;;;;;;;15.80;8.37;;;5.00;1.00;;;;;;5049907;28;20212;-86
2022/03/10 08:39:03;;;;;;;14.63;9.03;;;5.00;1.00;;;;;;5051634;28;20246;-85
2022/03/10 08:41:30;;;;;;;17.00;9.43;;;5.00;1.00;;;;;;5053038;28;20274;-84
2022/03/10 08:43:57;;;;;;;15.20;8.67;;;5.10;1.00;;;;;;5053249;28;20184;-85
2022/03/10 08:46:25;;;;;;;15.17;9.10;;;5.10;1.00;;;;;;5051259;28;20184;-84
2022/03/10 08:48:52;;;;;;;14.93;8.50;;;5.20;99.90;;;;;;5038999;28;20185;-83
2022/03/10 08:51:19;;;;;;;15.93;9.47;;;5.30;99.90;;;;;;5047894;28;20243;-86
2022/03/10 08:53:46;;;;;;;12.37;7.23;;;5.40;99.90;;;;;;5036268;28;20199;-83
2022/03/10 08:56:13;;;;;;;15.73;8.73;;;5.70;99.90;;;;;;5037993;28;20214;-84
2022/03/10 08:58:40;;;;;;;14.40;8.07;;;6.00;1.00;;;;;;5039614;28;20231;-85
2022/03/10 09:01:07;;;;;;;13.97;8.57;;;6.90;1.00;;;;;;5052128;28;20225;-83
2022/03/10 09:03:36;;;;;;;14.23;8.53;;;7.70;1.00;;;;;;5051036;28;20590;-84
2022/03/10 09:06:03;;;;;;;11.53;8.07;;;8.70;1.00;;;;;;5054936;28;20228;-83
2022/03/10 09:08:33;;;;;;;13.17;8.20;;;9.40;99.90;;;;;;5053673;28;20186;-86
2022/03/10 09:11:02;;;;;;;11.50;7.70;;;10.00;99.90;;;;;;5050470;28;20200;-86
2022/03/10 09:13:29;;;;;;;14.20;8.60;;;10.40;99.90;;;;;;5044094;28;20199;-86
2022/03/10 09:15:56;;;;;;;11.27;7.40;;;10.60;80.60;;;;;;5057038;28;20209;-83
2022/03/10 09:18:23;;;;;;;14.77;8.30;;;10.80;1.00;;;;;;5052507;28;20185;-84
2022/03/10 09:20:57;;;;;;;12.77;8.70;;;11.00;1.00;;;;;;5056805;28;20252;-90
2022/03/10 09:23:24;;;;;;;11.80;7.67;;;11.30;1.00;;;;;;5055769;28;20193;-85
2022/03/10 09:25:51;;;;;;;13.83;8.77;;;11.40;1.00;;;;;;5060364;28;20194;-85
2022/03/10 09:28:28;;;;;;;12.83;8.90;;;11.40;1.00;;;;;;5058503;28;20196;-87
2022/03/10 09:34:04;;;;;;;14.33;9.03;;;10.50;1.00;;;;;;5059064;28;20214;-86
2022/03/10 09:36:35;;;;;;;13.17;8.80;;;9.60;1.00;;;;;;5045431;28;20204;-89
2022/03/10 09:39:13;;;;;;;11.47;7.70;;;9.50;1.00;;;;;;5052232;28;20744;-84
2022/03/10 09:41:42;;;;;;;12.77;8.80;;;9.80;1.00;;;;;;5055718;28;20184;-85
2022/03/10 09:44:14;;;;;;;12.13;8.37;;;10.20;1.00;;;;;;5055462;28;20203;-83
2022/03/10 09:46:42;;;;;;;13.37;8.13;;;10.70;1.00;;;;;;5056851;28;20232;-84
2022/03/10 09:49:10;;;;;;;12.00;8.50;;;11.10;1.00;;;;;;5057130;28;20268;-85
2022/03/10 09:51:38;;;;;;;9.53;7.03;;;11.30;1.00;;;;;;5054585;28;20676;-85
2022/03/10 09:54:06;;;;;;;14.13;8.10;;;11.50;1.00;;;;;;5053252;28;20190;-84
2022/03/10 09:56:36;;;;;;;11.73;7.97;;;11.50;1.00;;;;;;5058018;28;20292;-84
2022/03/10 09:59:07;;;;;;;15.50;8.70;;;11.40;1.00;;;;;;5056122;28;20628;-85
2022/03/10 10:01:35;;;;;;;11.23;7.60;;;11.30;1.00;;;;;;5050798;28;20241;-85
2022/03/10 10:04:02;;;;;;;16.43;10.07;;;11.20;1.00;;;;;;5055851;28;20648;-84
2022/03/10 10:06:32;;;;;;;13.77;7.90;;;10.90;1.00;;;;;;5056781;28;20256;-85
2022/03/10 10:09:00;;;;;;;13.03;7.50;;;10.60;1.00;;;;;;5057241;28;20213;-84
2022/03/10 10:11:34;;;;;;;11.83;6.57;;;10.40;1.00;;;;;;5058490;28;20190;-84
2022/03/10 10:14:01;;;;;;;10.17;6.50;;;10.00;1.00;;;;;;5057491;28;20210;-83
2022/03/10 10:16:28;;;;;;;11.13;7.20;;;9.70;1.00;;;;;;5060470;28;20296;-85
2022/03/10 10:18:57;;;;;;;7.93;5.23;;;9.20;1.00;;;;;;5056524;28;20245;-84
2022/03/10 10:21:25;;;;;;;6.67;4.57;;;8.90;1.00;;;;;;5055885;28;20228;-83
2022/03/10 10:23:57;;;;;;;7.43;4.73;;;8.80;1.00;;;;;;5057119;28;20674;-86
2022/03/10 10:26:38;;;;;;;43.87;22.30;;;8.60;1.00;;;;;;5059657;28;20246;-85
2022/03/10 10:29:07;;;;;;;8.30;5.33;;;8.60;1.00;;;;;;5044916;28;20219;-86
2022/03/10 10:31:38;;;;;;;8.27;5.23;;;8.60;1.00;;;;;;5053087;28;20207;-82
2022/03/10 10:34:09;;;;;;;9.17;5.47;;;8.60;1.00;;;;;;5045463;28;20224;-83
2022/03/10 10:36:38;;;;;;;9.77;5.83;;;8.50;1.00;;;;;;5049785;28;20286;-84
2022/03/10 10:39:10;;;;;;;9.23;6.83;;;8.50;1.00;;;;;;5042194;28;20184;-83
2022/03/10 10:41:40;;;;;;;11.67;5.40;;;8.40;1.00;;;;;;5046758;28;20188;-83
2022/03/10 10:44:08;;;;;;;8.67;5.83;;;8.40;1.00;;;;;;5051253;28;20604;-83
2022/03/10 10:46:37;;;;;;;7.73;4.73;;;8.30;1.00;;;;;;5052708;28;20249;-83
2022/03/10 10:49:07;;;;;;;8.00;5.27;;;8.20;1.00;;;;;;5038891;28;20225;-85
2022/03/10 10:51:38;;;;;;;7.47;4.70;;;8.10;1.00;;;;;;5049793;28;20189;-83
2022/03/10 10:54:10;;;;;;;8.93;6.23;;;7.90;1.00;;;;;;5064031;28;20181;-84
2022/03/10 10:56:46;;;;;;;11.00;6.83;;;7.90;1.00;;;;;;5060133;28;20262;-83
2022/03/10 10:59:30;;;;;;;13.70;8.60;;;7.90;1.00;;;;;;5057502;28;20213;-84
2022/03/10 11:02:09;;;;;;;10.23;6.53;;;7.90;1.00;;;;;;5058019;28;20186;-83
2022/03/10 11:04:58;;;;;;;9.83;5.63;;;8.10;1.00;;;;;;5065367;28;20236;-83
2022/03/10 11:07:25;;;;;;;8.23;5.00;;;8.10;1.00;;;;;;5057635;28;20205;-84
2022/03/10 11:09:52;;;;;;;11.60;6.00;;;8.30;1.00;;;;;;5055467;28;20196;-84
2022/03/10 11:12:21;;;;;;;8.97;5.80;;;8.30;1.00;;;;;;5058318;28;20618;-85
2022/03/10 11:14:49;;;;;;;6.53;4.50;;;8.40;1.00;;;;;;5055744;28;20192;-84
2022/03/10 11:17:19;;;;;;;7.63;4.60;;;8.30;1.00;;;;;;5069114;28;20225;-85
2022/03/10 11:19:48;;;;;;;8.73;4.97;;;8.20;1.00;;;;;;5056429;28;20234;-83
2022/03/10 11:22:38;;;;;;;6.77;4.07;;;8.20;1.00;;;;;;5056768;28;20240;-82
2022/03/10 11:25:22;;;;;;;8.33;4.93;;;8.00;1.00;;;;;;5059893;28;20191;-84
2022/03/10 11:27:55;;;;;;;10.93;5.70;;;8.00;1.00;;;;;;5055095;28;20198;-85
2022/03/10 11:30:26;;;;;;;8.83;5.40;;;8.00;1.00;;;;;;5053561;28;20191;-83
2022/03/10 11:33:05;;;;;;;8.80;4.33;;;8.10;1.00;;;;;;5052107;28;20245;-82
2022/03/10 11:35:39;;;;;;;6.20;4.30;;;8.10;1.00;;;;;;5052024;28;20186;-87
2022/03/10 11:38:08;;;;;;;7.83;4.30;;;8.10;1.00;;;;;;5051054;28;20193;-82
2022/03/10 11:40:52;;;;;;;8.77;4.70;;;8.10;1.00;;;;;;5048578;28;20242;-82
2022/03/10 11:43:33;;;;;;;19.70;9.23;;;8.10;1.00;;;;;;5050424;28;20266;-82
2022/03/10 11:46:20;;;;;;;10.13;4.80;;;8.10;1.00;;;;;;5053505;28;20191;-85
2022/03/10 11:49:05;;;;;;;6.10;3.90;;;8.10;1.00;;;;;;5055655;28;20179;-84
2022/03/10 11:52:03;;;;;;;44.70;20.80;;;8.20;1.00;;;;;;5052822;28;20186;-82
2022/03/10 11:54:34;;;;;;;8.00;4.43;;;8.30;1.00;;;;;;5053136;28;20203;-86
2022/03/10 11:57:04;;;;;;;6.70;4.07;;;8.40;1.00;;;;;;5057845;28;20222;-84
2022/03/10 11:59:51;;;;;;;7.83;4.63;;;8.40;1.00;;;;;;5057545;28;20285;-85
2022/03/10 12:02:39;;;;;;;7.13;4.30;;;8.40;1.00;;;;;;5056631;28;20184;-82
2022/03/10 12:05:07;;;;;;;9.77;4.93;;;8.40;1.00;;;;;;5056162;28;20184;-82
2022/03/10 12:07:35;;;;;;;7.43;4.50;;;8.30;1.00;;;;;;5055434;28;20283;-82
2022/03/10 12:10:05;;;;;;;9.13;4.40;;;8.40;1.00;;;;;;5054961;28;20223;-84
2022/03/10 12:12:40;;;;;;;10.73;5.60;;;8.40;1.00;;;;;;5057408;28;20579;-84
2022/03/10 12:15:49;;;;;;;13.47;7.03;;;8.40;1.00;;;;;;5051367;28;20191;-85
2022/03/10 12:18:21;;;;;;;9.27;5.60;;;8.40;1.00;;;;;;5052425;28;20270;-83
2022/03/10 12:20:50;;;;;;;9.40;5.03;;;8.30;1.00;;;;;;5054889;28;20256;-83
2022/03/10 12:23:19;;;;;;;7.97;4.70;;;8.40;1.00;;;;;;5055472;28;20195;-82
2022/03/10 12:25:48;;;;;;;11.37;5.10;;;8.50;1.00;;;;;;5054708;28;20280;-82
2022/03/10 12:28:32;;;;;;;9.30;6.00;;;8.50;1.00;;;;;;5055346;28;20560;-83
2022/03/10 12:31:05;;;;;;;6.97;4.70;;;8.50;1.00;;;;;;5055272;28;20587;-84
2022/03/10 12:33:34;;;;;;;6.77;4.67;;;8.50;1.00;;;;;;5055049;28;20204;-85
2022/03/10 12:36:02;;;;;;;6.23;4.20;;;8.40;1.00;;;;;;5052720;28;20231;-84
2022/03/10 12:38:44;;;;;;;8.70;5.37;;;8.30;1.00;;;;;;5045896;28;20196;-82
2022/03/10 12:41:11;;;;;;;9.20;5.80;;;8.20;1.00;;;;;;5053420;28;20260;-84
2022/03/10 12:43:38;;;;;;;9.10;4.83;;;8.20;1.00;;;;;;5054520;28;20199;-83
2022/03/10 12:46:13;;;;;;;11.50;7.00;;;8.30;1.00;;;;;;5055110;28;20194;-85
2022/03/10 12:48:48;;;;;;;6.80;4.33;;;8.40;1.00;;;;;;5052506;28;20216;-82
2022/03/10 12:51:25;;;;;;;7.07;3.60;;;8.50;1.00;;;;;;5034454;28;20235;-82
2022/03/10 12:53:53;;;;;;;6.60;3.97;;;8.50;1.00;;;;;;5035590;28;20291;-84
2022/03/10 12:56:21;;;;;;;8.07;4.20;;;8.40;1.00;;;;;;5036096;28;20226;-83
2022/03/10 12:58:49;;;;;;;5.57;3.77;;;8.40;1.00;;;;;;5038326;28;20254;-83
2022/03/10 13:01:17;;;;;;;7.43;4.40;;;8.40;1.00;;;;;;5035305;28;20242;-83
2022/03/10 13:03:53;;;;;;;7.63;4.47;;;8.30;1.00;;;;;;5035585;28;20203;-83
2022/03/10 13:06:28;;;;;;;7.20;3.97;;;8.20;1.00;;;;;;5037777;28;20206;-83
2022/03/10 13:08:56;;;;;;;6.80;4.10;;;8.20;1.00;;;;;;5034513;28;20202;-82
2022/03/10 13:11:24;;;;;;;8.67;4.20;;;8.20;1.00;;;;;;5036412;28;20195;-80
2022/03/10 13:14:08;;;;;;;9.03;5.17;;;8.20;1.00;;;;;;5035404;28;20648;-82